createdAt,value
2019-05-30T00:01:22.861Z,2.40
2019-05-30T00:03:56.013Z,2.77
2019-05-30T00:06:28.256Z,2.33
2019-05-30T00:09:00.524Z,2.00
2019-05-30T00:11:32.949Z,2.80
2019-05-30T00:14:05.069Z,2.30
2019-05-30T00:16:36.754Z,2.47
2019-05-30T00:19:08.571Z,2.10
2019-05-30T00:21:41.256Z,2.40
2019-05-30T00:24:12.998Z,2.10
2019-05-30T00:26:44.716Z,2.70
2019-05-30T00:29:16.538Z,2.23
2019-05-30T00:31:48.257Z,2.30
2019-05-30T00:34:19.987Z,2.40
2019-05-30T00:36:51.802Z,2.00
2019-05-30T00:39:23.518Z,1.77
2019-05-30T00:41:56.019Z,1.87
2019-05-30T00:44:28.236Z,2.37
2019-05-30T00:47:00.636Z,2.20
2019-05-30T00:49:32.748Z,2.17
2019-05-30T00:52:05.123Z,2.30
2019-05-30T00:54:39.603Z,2.47
2019-05-30T00:57:11.327Z,2.20
2019-05-30T00:59:43.153Z,1.90
2019-05-30T01:02:14.883Z,2.23
2019-05-30T01:04:46.603Z,2.60
2019-05-30T01:07:18.435Z,2.53
2019-05-30T01:09:50.145Z,2.53
2019-05-30T01:12:21.941Z,2.93
2019-05-30T01:14:53.716Z,2.23
2019-05-30T01:17:25.431Z,2.20
2019-05-30T01:19:57.164Z,2.50
2019-05-30T01:22:29.752Z,2.60
2019-05-30T01:25:01.670Z,1.90
2019-05-30T01:27:33.385Z,2.00
2019-05-30T01:30:08.449Z,2.17
2019-05-30T01:32:40.282Z,2.43
2019-05-30T01:35:12.333Z,2.10
2019-05-30T01:37:44.062Z,2.30
2019-05-30T01:40:17.594Z,2.17
2019-05-30T01:42:49.213Z,2.33
2019-05-30T01:45:21.005Z,2.30
2019-05-30T01:47:52.636Z,2.10
2019-05-30T01:50:24.531Z,2.10
2019-05-30T01:52:56.167Z,1.97
2019-05-30T01:55:28.831Z,2.30
2019-05-30T01:58:01.558Z,2.33
2019-05-30T02:00:41.581Z,2.70
2019-05-30T02:03:13.107Z,2.80
2019-05-30T02:05:44.827Z,2.60
2019-05-30T02:08:16.549Z,1.90
2019-05-30T02:10:48.363Z,2.57
2019-05-30T02:13:20.093Z,2.27
2019-05-30T02:15:51.814Z,1.90
2019-05-30T02:18:23.654Z,2.10
2019-05-30T02:20:55.366Z,2.60
2019-05-30T02:23:27.089Z,2.27
2019-05-30T02:26:00.093Z,2.30
2019-05-30T02:28:31.902Z,2.70
2019-05-30T02:31:05.258Z,2.90
2019-05-30T02:33:36.935Z,2.77
2019-05-30T02:36:10.968Z,2.30
2019-05-30T02:38:42.005Z,2.53
2019-05-30T02:41:13.720Z,2.60
2019-05-30T02:43:45.547Z,2.47
2019-05-30T02:46:17.258Z,2.73
2019-05-30T02:48:58.761Z,2.47
2019-05-30T02:51:22.295Z,3.03
2019-05-30T02:53:54.009Z,2.63
2019-05-30T02:56:26.705Z,3.17
2019-05-30T02:58:58.520Z,2.87
2019-05-30T03:01:30.137Z,3.03
2019-05-30T03:04:03.878Z,3.33
2019-05-30T03:06:35.918Z,3.10
2019-05-30T03:09:10.758Z,2.73
2019-05-30T03:11:42.206Z,2.87
2019-05-30T03:14:19.000Z,2.30
2019-05-30T03:16:47.877Z,3.00
2019-05-30T03:19:19.869Z,2.00
2019-05-30T03:21:51.927Z,2.43
2019-05-30T03:24:23.752Z,2.87
2019-05-30T03:26:55.537Z,3.27
2019-05-30T03:29:27.264Z,2.93
2019-05-30T03:32:33.831Z,2.73
2019-05-30T03:34:33.245Z,3.30
2019-05-30T03:37:09.330Z,3.20
2019-05-30T03:39:38.590Z,3.10
2019-05-30T03:42:11.775Z,3.20
2019-05-30T03:44:43.950Z,3.23
2019-05-30T03:47:19.092Z,3.33
2019-05-30T03:49:52.061Z,3.30
2019-05-30T03:52:25.798Z,3.70
2019-05-30T03:54:57.495Z,3.73
2019-05-30T03:57:42.209Z,3.87
2019-05-30T04:00:38.658Z,4.70
2019-05-30T04:03:46.453Z,7.73
2019-05-30T04:06:23.584Z,7.20
2019-05-30T04:08:59.900Z,8.70
2019-05-30T04:11:41.965Z,11.60
2019-05-30T04:14:19.380Z,6.67
2019-05-30T04:16:50.957Z,10.97
2019-05-30T04:19:22.797Z,7.83
2019-05-30T04:21:54.638Z,5.80
2019-05-30T04:24:26.397Z,4.90
2019-05-30T04:26:58.141Z,3.80
2019-05-30T04:29:29.871Z,3.50
2019-05-30T04:32:02.588Z,4.00
2019-05-30T04:34:34.295Z,3.47
2019-05-30T04:37:06.028Z,2.30
2019-05-30T04:39:37.858Z,2.23
2019-05-30T04:42:11.169Z,2.47
2019-05-30T04:44:42.907Z,2.40
2019-05-30T04:47:15.999Z,2.40
2019-05-30T04:49:47.947Z,2.77
2019-05-30T04:52:23.909Z,3.00
2019-05-30T04:54:53.011Z,2.63
2019-05-30T04:57:26.875Z,2.60
2019-05-30T04:59:58.073Z,2.43
2019-05-30T05:02:29.833Z,2.10
2019-05-30T05:05:01.563Z,2.77
2019-05-30T05:07:34.231Z,2.30
2019-05-30T05:10:09.414Z,2.50
2019-05-30T05:12:41.332Z,1.97
2019-05-30T05:15:14.320Z,1.80
2019-05-30T05:17:46.231Z,2.30
2019-05-30T05:20:19.367Z,2.73
2019-05-30T05:22:51.690Z,2.07
2019-05-30T05:25:23.644Z,2.37
2019-05-30T05:27:55.683Z,2.30
2019-05-30T05:30:28.678Z,2.33
2019-05-30T05:33:00.439Z,2.20
2019-05-30T05:35:32.164Z,2.40
2019-05-30T05:38:03.907Z,2.77
2019-05-30T05:40:35.731Z,2.57
2019-05-30T05:43:07.487Z,2.37
2019-05-30T05:45:39.211Z,2.90
2019-05-30T05:48:10.949Z,2.83
2019-05-30T05:50:42.760Z,2.57
2019-05-30T05:53:14.497Z,2.73
2019-05-30T05:55:46.225Z,2.67
2019-05-30T05:58:19.109Z,2.63
2019-05-30T06:00:51.289Z,2.20
2019-05-30T06:03:24.154Z,2.00
2019-05-30T06:05:56.487Z,1.97
2019-05-30T06:08:28.997Z,2.10
2019-05-30T06:11:00.824Z,1.97
2019-05-30T06:13:32.553Z,1.87
2019-05-30T06:16:04.721Z,1.90
2019-05-30T06:18:36.347Z,1.70
2019-05-30T06:21:08.179Z,1.87
2019-05-30T06:23:39.912Z,1.70
2019-05-30T06:26:11.640Z,2.53
2019-05-30T06:28:43.378Z,1.50
2019-05-30T06:31:15.225Z,1.87
2019-05-30T06:33:46.958Z,1.80
2019-05-30T06:36:18.865Z,1.70
2019-05-30T06:38:51.013Z,2.23
2019-05-30T06:41:23.527Z,2.10
2019-05-30T06:43:55.481Z,1.90
2019-05-30T06:46:28.294Z,1.93
2019-05-30T06:49:00.533Z,1.73
2019-05-30T06:51:32.271Z,2.20
2019-05-30T06:54:04.100Z,1.50
2019-05-30T06:56:35.830Z,2.10
2019-05-30T06:59:07.596Z,1.90
2019-05-30T07:01:39.302Z,1.50
2019-05-30T07:04:11.504Z,1.80
2019-05-30T07:06:44.045Z,1.73
2019-05-30T07:09:15.852Z,1.40
2019-05-30T07:11:47.891Z,1.43
2019-05-30T07:14:21.133Z,1.50
2019-05-30T07:16:52.965Z,1.53
2019-05-30T07:19:25.345Z,1.53
2019-05-30T07:21:57.408Z,1.70
2019-05-30T07:24:29.910Z,1.60
2019-05-30T07:27:04.198Z,1.83
2019-05-30T07:29:36.027Z,1.93
2019-05-30T07:32:07.861Z,1.23
2019-05-30T07:34:39.609Z,1.43
2019-05-30T07:37:11.343Z,1.10
2019-05-30T07:39:43.081Z,1.10
2019-05-30T07:42:14.804Z,1.00
2019-05-30T07:44:46.630Z,1.23
2019-05-30T07:47:18.365Z,0.90
2019-05-30T07:49:50.091Z,1.03
2019-05-30T07:52:22.284Z,1.67
2019-05-30T07:54:53.917Z,1.20
2019-05-30T07:57:26.137Z,1.33
2019-05-30T07:59:58.367Z,0.70
2019-05-30T08:02:30.111Z,1.33
2019-05-30T08:05:01.928Z,1.33
2019-05-30T08:07:34.982Z,1.40
2019-05-30T08:10:09.965Z,1.00
2019-05-30T08:12:41.748Z,3.83
2019-05-30T08:15:14.724Z,1.00
2019-05-30T08:17:46.552Z,0.87
2019-05-30T08:20:20.228Z,1.40
2019-05-30T08:22:51.853Z,0.90
2019-05-30T08:25:23.677Z,1.60
2019-05-30T08:27:55.406Z,1.10
2019-05-30T08:30:28.316Z,3.80
2019-05-30T08:33:00.508Z,2.43
2019-05-30T08:35:46.898Z,1.10
2019-05-30T08:38:05.772Z,1.50
2019-05-30T08:40:37.817Z,1.23
2019-05-30T08:43:09.921Z,1.27
2019-05-30T08:45:41.808Z,1.10
2019-05-30T08:48:14.773Z,1.27
2019-05-30T08:50:46.408Z,1.43
2019-05-30T08:53:18.612Z,1.10
2019-05-30T08:55:50.242Z,1.43
2019-05-30T08:58:22.079Z,0.90
2019-05-30T09:00:53.812Z,1.30
2019-05-30T09:03:25.542Z,1.17
2019-05-30T09:06:03.686Z,1.13
2019-05-30T09:08:30.606Z,1.63
2019-05-30T09:11:02.334Z,1.50
2019-05-30T09:13:34.163Z,1.20
2019-05-30T09:16:06.074Z,1.37
2019-05-30T09:18:38.556Z,1.30
2019-05-30T09:21:11.535Z,1.27
2019-05-30T09:23:44.015Z,1.43
2019-05-30T09:26:15.682Z,0.90
2019-05-30T09:28:48.301Z,1.20
2019-05-30T09:31:21.363Z,1.67
2019-05-30T09:33:53.100Z,1.13
2019-05-30T09:36:24.826Z,1.10
2019-05-30T09:38:56.668Z,2.10
2019-05-30T09:41:28.391Z,1.20
2019-05-30T09:44:00.121Z,1.30
2019-05-30T09:46:31.843Z,1.90
2019-05-30T09:49:03.653Z,1.17
2019-05-30T09:51:35.468Z,0.93
2019-05-30T09:54:07.259Z,1.30
2019-05-30T09:56:38.886Z,1.47
2019-05-30T09:59:10.718Z,1.60
2019-05-30T10:01:43.167Z,1.80
2019-05-30T10:04:15.771Z,1.10
2019-05-30T10:06:48.449Z,1.20
2019-05-30T10:09:20.496Z,1.30
2019-05-30T10:11:53.400Z,1.70
2019-05-30T10:14:25.529Z,1.23
2019-05-30T10:16:58.156Z,1.40
2019-05-30T10:19:30.314Z,1.60
2019-05-30T10:22:02.079Z,1.40
2019-05-30T10:24:33.807Z,1.30
2019-05-30T10:27:05.533Z,1.37
2019-05-30T10:29:37.646Z,1.57
2019-05-30T10:32:09.368Z,1.50
2019-05-30T10:34:41.102Z,1.87
2019-05-30T10:37:12.939Z,1.90
2019-05-30T10:39:45.681Z,1.93
2019-05-30T10:42:18.228Z,3.50
2019-05-30T10:44:51.863Z,1.60
2019-05-30T10:47:23.595Z,2.83
2019-05-30T10:49:55.429Z,1.70
2019-05-30T10:52:27.150Z,1.77
2019-05-30T10:54:58.889Z,1.80
2019-05-30T10:57:30.620Z,1.93
2019-05-30T11:00:02.618Z,1.40
2019-05-30T11:02:34.527Z,1.40
2019-05-30T11:05:10.658Z,1.50
2019-05-30T11:08:06.337Z,1.60
2019-05-30T11:10:46.732Z,1.60
2019-05-30T11:13:19.001Z,1.43
2019-05-30T11:15:51.721Z,1.80
2019-05-30T11:18:23.729Z,1.63
2019-05-30T11:20:56.411Z,1.40
2019-05-30T11:23:28.181Z,1.60
2019-05-30T11:25:59.926Z,1.40
2019-05-30T11:28:31.661Z,3.43
2019-05-30T11:31:04.808Z,5.30
2019-05-30T11:33:37.090Z,4.60
2019-05-30T11:36:08.817Z,3.47
2019-05-30T11:38:40.552Z,1.53
2019-05-30T11:41:12.385Z,1.83
2019-05-30T11:43:44.191Z,3.60
2019-05-30T11:46:15.826Z,1.90
2019-05-30T11:48:47.660Z,1.40
2019-05-30T11:51:19.390Z,1.20
2019-05-30T11:53:51.822Z,1.60
2019-05-30T11:56:23.496Z,2.70
2019-05-30T11:58:55.999Z,2.93
2019-05-30T12:01:27.638Z,2.33
2019-05-30T12:04:00.687Z,1.73
2019-05-30T12:06:33.995Z,2.17
2019-05-30T12:09:08.061Z,2.00
2019-05-30T12:11:39.619Z,2.20
2019-05-30T12:14:11.345Z,2.00
2019-05-30T12:16:43.083Z,1.93
2019-05-30T12:19:14.825Z,2.17
2019-05-30T12:21:46.554Z,2.27
2019-05-30T12:24:18.578Z,1.70
2019-05-30T12:26:50.414Z,1.50
2019-05-30T12:29:22.233Z,1.93
2019-05-30T12:31:57.565Z,2.23
2019-05-30T12:34:27.304Z,2.50
2019-05-30T12:36:59.047Z,2.37
2019-05-30T12:39:32.715Z,2.10
2019-05-30T12:42:04.727Z,2.07
2019-05-30T12:44:37.989Z,1.67
2019-05-30T12:47:09.706Z,1.80
2019-05-30T12:49:42.401Z,2.20
2019-05-30T12:52:14.136Z,2.10
2019-05-30T12:54:45.977Z,1.80
2019-05-30T12:57:17.721Z,1.70
2019-05-30T12:59:49.448Z,2.07
2019-05-30T13:02:21.198Z,2.17
2019-05-30T13:04:52.925Z,1.83
2019-05-30T13:07:24.784Z,1.50
2019-05-30T13:09:57.129Z,2.40
2019-05-30T13:12:29.162Z,1.80
2019-05-30T13:15:01.912Z,2.00
2019-05-30T13:17:34.241Z,2.50
2019-05-30T13:20:10.813Z,1.83
2019-05-30T13:22:43.593Z,1.97
2019-05-30T13:25:18.383Z,2.47
2019-05-30T13:27:50.144Z,2.80
2019-05-30T13:30:22.471Z,3.00
2019-05-30T13:32:54.718Z,2.87
2019-05-30T13:35:28.237Z,2.00
2019-05-30T15:36:39.338Z,1.30
2019-05-30T15:39:11.085Z,1.77
2019-05-30T15:41:42.808Z,1.90
2019-05-30T15:44:15.715Z,1.70
2019-05-30T15:46:47.907Z,1.93
2019-05-30T15:49:20.631Z,1.30
2019-05-30T15:51:52.670Z,1.30
2019-05-30T15:54:24.411Z,1.27
2019-05-30T15:56:56.214Z,1.57
2019-05-30T15:59:27.961Z,2.00
2019-05-30T16:01:59.721Z,1.30
2019-05-30T16:04:31.448Z,1.73
2019-05-30T16:07:03.203Z,1.40
2019-05-30T16:09:46.777Z,1.73
2019-05-30T16:12:13.007Z,1.73
2019-05-30T16:14:49.729Z,2.40
2019-05-30T16:17:21.824Z,2.13
2019-05-30T16:19:53.533Z,2.53
2019-05-30T16:22:25.570Z,2.33
2019-05-30T16:24:57.504Z,1.37
2019-05-30T16:27:31.323Z,1.77
2019-05-30T16:30:03.829Z,2.43
2019-05-30T16:32:36.062Z,1.60
2019-05-30T16:35:09.050Z,1.60
2019-05-30T16:37:41.022Z,1.40
2019-05-30T16:40:14.495Z,1.50
2019-05-30T16:42:46.555Z,1.60
2019-05-30T16:45:24.631Z,1.70
2019-05-30T16:47:53.664Z,1.33
2019-05-30T16:50:27.014Z,1.67
2019-05-30T16:53:01.335Z,1.73
2019-05-30T16:55:33.134Z,1.80
2019-05-30T16:58:05.198Z,1.40
2019-05-30T17:00:36.865Z,1.77
2019-05-30T17:03:08.746Z,2.00
2019-05-30T17:05:40.605Z,1.80
2019-05-30T17:08:12.470Z,1.77
2019-05-30T17:10:44.298Z,2.00
2019-05-30T17:13:15.941Z,3.80
2019-05-30T17:15:48.481Z,5.63
2019-05-30T17:18:20.304Z,3.20
2019-05-30T17:20:52.177Z,3.80
2019-05-30T17:23:24.854Z,2.80
2019-05-30T17:25:57.030Z,3.40
2019-05-30T17:28:30.096Z,4.20
2019-05-30T17:31:02.014Z,2.13
2019-05-30T17:33:33.859Z,3.57
2019-05-30T17:36:06.125Z,3.77
2019-05-30T17:38:37.893Z,3.33
2019-05-30T17:41:09.761Z,3.23
2019-05-30T17:43:41.951Z,5.23
2019-05-30T17:46:13.790Z,11.53
2019-05-30T17:48:45.837Z,12.03
2019-05-30T17:51:19.775Z,8.67
2019-05-30T17:53:51.504Z,6.20
2019-05-30T17:56:23.968Z,3.43
2019-05-30T17:58:56.078Z,11.80
2019-05-30T18:01:30.559Z,34.03
2019-05-30T18:04:02.505Z,11.77
2019-05-30T18:06:34.299Z,29.50
2019-05-30T18:09:08.406Z,6.10
2019-05-30T18:11:39.960Z,4.87
2019-05-30T18:14:11.816Z,3.40
2019-05-30T18:16:44.449Z,2.87
2019-05-30T18:19:16.173Z,15.57
2019-05-30T18:21:47.944Z,5.33
2019-05-30T18:24:21.435Z,2.77
2019-05-30T18:26:53.252Z,3.00
2019-05-30T18:29:26.045Z,5.50
2019-05-30T18:31:59.554Z,22.17
2019-05-30T18:34:32.786Z,12.93
2019-05-30T18:37:05.293Z,9.93
2019-05-30T18:39:36.934Z,12.87
2019-05-30T18:42:08.686Z,13.67
2019-05-30T18:44:40.442Z,9.70
2019-05-30T18:47:12.179Z,6.23
2019-05-30T18:49:44.019Z,6.43
2019-05-30T18:52:17.357Z,6.83
2019-05-30T18:54:49.306Z,6.03
2019-05-30T18:57:21.054Z,6.90
2019-05-30T18:59:52.907Z,6.70
2019-05-30T19:02:25.134Z,7.33
2019-05-30T19:04:57.120Z,8.63
2019-05-30T19:07:37.194Z,5.93
2019-05-30T19:10:11.543Z,6.23
2019-05-30T19:12:43.722Z,5.50
2019-05-30T19:15:18.031Z,6.40
2019-05-30T19:17:52.459Z,7.67
2019-05-30T19:20:25.551Z,8.13
2019-05-30T19:22:57.670Z,4.97
2019-05-30T19:25:29.971Z,6.10
2019-05-30T19:28:02.155Z,6.27
2019-05-30T19:30:34.889Z,5.53
2019-05-30T19:33:08.570Z,4.80
2019-05-30T19:35:41.530Z,5.57
2019-05-30T19:38:15.215Z,5.47
2019-05-30T19:40:47.187Z,5.37
2019-05-30T19:43:18.831Z,6.20
2019-05-30T19:45:50.766Z,5.77
2019-05-30T19:48:23.664Z,4.00
2019-05-30T19:50:55.423Z,4.97
2019-05-30T19:53:28.793Z,4.80
2019-05-30T19:56:01.448Z,4.53
2019-05-30T19:58:33.500Z,4.80
2019-05-30T20:01:07.671Z,4.80
2019-05-30T20:03:45.164Z,4.43
2019-05-30T20:06:14.747Z,4.97
2019-05-30T20:08:55.514Z,5.77
2019-05-30T20:11:26.684Z,4.60
2019-05-30T20:13:58.671Z,3.90
2019-05-30T20:16:31.391Z,3.70
2019-05-30T20:19:04.871Z,3.83
2019-05-30T20:21:37.790Z,3.93
2019-05-30T20:24:10.254Z,3.90
2019-05-30T20:26:45.584Z,3.80
2019-05-30T20:29:21.167Z,4.20
2019-05-30T20:31:58.658Z,4.90
2019-05-30T20:34:31.372Z,4.80
2019-05-30T20:37:09.626Z,6.87
2019-05-30T20:39:50.133Z,5.43
2019-05-30T20:42:24.667Z,6.80
2019-05-30T20:44:56.589Z,5.63
2019-05-30T20:47:36.021Z,5.57
2019-05-30T20:50:10.318Z,6.37
2019-05-30T20:52:45.592Z,7.07
2019-05-30T20:55:18.722Z,6.93
2019-05-30T20:57:50.351Z,8.40
2019-05-30T21:00:25.501Z,8.47
2019-05-30T21:02:59.898Z,8.27
2019-05-30T21:05:31.661Z,8.67
2019-05-30T21:08:06.152Z,8.53
2019-05-30T21:10:41.526Z,7.43
2019-05-30T21:13:16.734Z,7.97
2019-05-30T21:15:50.825Z,7.67
2019-05-30T21:18:25.292Z,9.70
2019-05-30T21:20:57.694Z,10.07
2019-05-30T21:23:29.639Z,9.87
2019-05-30T21:26:01.448Z,9.33
2019-05-30T21:28:33.105Z,9.90
2019-05-30T21:31:04.828Z,8.50
2019-05-30T21:33:37.519Z,8.50
2019-05-30T21:36:09.666Z,7.70
2019-05-30T21:38:41.947Z,8.73
2019-05-30T21:41:13.933Z,8.83
2019-05-30T21:43:46.790Z,8.93
2019-05-30T21:46:19.180Z,8.47
2019-05-30T21:48:50.916Z,9.77
2019-05-30T21:51:22.651Z,8.00
2019-05-30T21:53:55.735Z,8.30
2019-05-30T21:56:27.417Z,8.27
2019-05-30T21:59:00.016Z,8.80
2019-05-30T22:01:34.769Z,12.33
2019-05-30T22:04:08.139Z,10.90
2019-05-30T22:06:40.843Z,11.10
2019-05-30T22:09:12.797Z,13.10
2019-05-30T22:11:45.577Z,12.47
2019-05-30T22:14:17.870Z,12.30
2019-05-30T22:16:50.248Z,13.37
2019-05-30T22:19:23.016Z,11.70
2019-05-30T22:21:54.820Z,10.43
2019-05-30T22:24:26.982Z,10.60
2019-05-30T22:26:58.617Z,11.03
2019-05-30T22:29:30.373Z,11.73
2019-05-30T22:32:02.788Z,8.10
2019-05-30T22:34:34.528Z,7.17
2019-05-30T22:37:06.581Z,6.47
2019-05-30T22:39:38.622Z,7.07
2019-05-30T22:42:10.379Z,7.83
2019-05-30T22:44:42.101Z,8.23
2019-05-30T22:47:13.946Z,7.10
2019-05-30T22:49:46.700Z,7.13
2019-05-30T22:52:18.794Z,6.80
2019-05-30T22:54:51.225Z,7.17
2019-05-30T22:57:23.360Z,6.67
2019-05-30T22:59:55.199Z,6.23
2019-05-30T23:02:26.932Z,5.90
2019-05-30T23:04:58.669Z,6.73
2019-05-30T23:07:30.535Z,6.80
2019-05-30T23:10:05.774Z,6.00
2019-05-30T23:12:37.603Z,6.67
2019-05-30T23:15:10.542Z,6.60
2019-05-30T23:17:42.376Z,6.43
2019-05-30T23:20:15.970Z,7.10
2019-05-30T23:22:48.837Z,7.03
2019-05-30T23:25:21.904Z,6.93
2019-05-30T23:27:53.733Z,6.40
2019-05-30T23:30:27.066Z,7.07
2019-05-30T23:32:58.773Z,7.10
2019-05-30T23:35:30.511Z,6.83
2019-05-30T23:38:02.306Z,6.43
2019-05-30T23:40:35.619Z,6.80
2019-05-30T23:43:07.581Z,6.87
2019-05-30T23:45:39.395Z,5.90
2019-05-30T23:48:11.122Z,6.87
2019-05-30T23:50:43.023Z,7.07
2019-05-30T23:53:14.651Z,5.97
2019-05-30T23:55:46.481Z,6.80
2019-05-30T23:58:18.211Z,6.77
